Osg Courageous — WDF7122 — position and weather

sailwx.info

Track history (hours):
 
Tides and Currents Weather Stations Pressure Air Temp Water Temp Dewpoint Dewpoint Depression Visibility Wind Speed Wind Dir Waves Ship Positions

Osg Courageous

Owner: OSG Ship Management, Inc, Tampa, FL. More information available from US FCC via Universal Licensing System and Coast Guard Vessel Documentation Center.

Last reported at 2017-May-22 23:25 UTC. Time now 2017-May-25 23:52 UTC.
Position N 38°59' W 074°20'.

Length 187 m; draft 7 m.

Type: Tanker. MMSI: 367481310.

Date/timePositionNaut miles runAvg speedWind from/ knotsBaromVisibWave heightAir tempDewpointWater temp
2017-May-22 23:25N 38°59' W 074°20'36 9.6
2017-May-22 19:41N 39°32' W 074°02'2 9.6
2017-May-22 19:30N 39°34' W 074°02'5 9.5
2017-May-22 19:00N 39°38' W 073°59'5 9.5
2017-May-22 18:30N 39°43' W 073°57'6 9.0
2017-May-22 17:52N 39°48' W 073°55'3 9.2
2017-May-22 17:30N 39°52' W 073°54'35 9.3
2017-May-22 13:46N 40°26' W 073°55'3 6.7
2017-May-22 13:22N 40°29' W 073°54'410.9
2017-May-22 13:00N 40°31' W 073°58'4 9.2
2017-May-22 12:30N 40°34' W 074°02'5 9.5
2017-May-22 12:00N 40°39' W 074°03'0 0.7
2017-May-22 11:30N 40°39' W 074°03'0 0.1
2017-May-22 11:00N 40°39' W 074°03'0 0.0
2017-May-22 10:30N 40°39' W 074°03'0 0.0
2017-May-22 10:00N 40°39' W 074°03'0 0.0
2017-May-22 09:30N 40°39' W 074°03'0 0.0
2017-May-22 09:00N 40°39' W 074°03'0 0.0
2017-May-22 08:30N 40°39' W 074°03'0 0.0
2017-May-22 08:00N 40°39' W 074°03'0 0.1
2017-May-22 07:30N 40°39' W 074°03'0 0.1
2017-May-22 07:00N 40°39' W 074°03'0 0.3
2017-May-22 06:30N 40°39' W 074°03'0 0.1
2017-May-22 06:00N 40°39' W 074°03'0 0.1
2017-May-22 05:30N 40°39' W 074°03'0 0.1
2017-May-22 05:00N 40°39' W 074°03'0 0.0
2017-May-22 04:30N 40°39' W 074°03'0 0.0
2017-May-22 04:00N 40°39' W 074°03'0 0.0
2017-May-22 03:30N 40°39' W 074°03'0 0.0
2017-May-22 03:00N 40°39' W 074°03'0 0.0
2017-May-22 02:30N 40°39' W 074°03'0 0.1
2017-May-22 02:00N 40°39' W 074°03'0 0.1
2017-May-22 01:30N 40°39' W 074°03'0 0.2
2017-May-22 01:00N 40°39' W 074°03'0 0.3
2017-May-22 00:30N 40°39' W 074°03'0 0.1
2017-May-22 00:00N 40°39' W 074°03'0 0.0
2017-May-21 23:28N 40°39' W 074°03'0 0.0
2017-May-21 22:58N 40°39' W 074°03'0 0.6
2017-May-21 22:30N 40°39' W 074°03'3 6.0
2017-May-21 22:00N 40°39' W 074°07'3 6.5
2017-May-21 21:30N 40°39' W 074°11'2 4.2
2017-May-21 21:00N 40°37' W 074°12'1 0.0
2017-May-19 21:38N 40°35' W 074°13'0 0.0
2017-May-19 21:29N 40°35' W 074°13'2 3.9
2017-May-19 21:00N 40°33' W 074°14'4 4.0
2017-May-19 19:59N 40°30' W 074°10'610.8
2017-May-19 19:28N 40°29' W 074°03'5 9.8
2017-May-19 19:00N 40°28' W 073°57'3 5.6
2017-May-19 18:29N 40°25' W 073°55'1 0.4
2017-May-19 17:09N 40°25' W 073°56'0 0.0
2017-May-19 16:54N 40°25' W 073°56'0 0.0
2017-May-19 15:12N 40°25' W 073°56'0 0.1
2017-May-19 14:42N 40°25' W 073°56'0 0.0
2017-May-19 14:00N 40°25' W 073°56'0 0.0
2017-May-19 13:27N 40°25' W 073°56'0 0.0
2017-May-19 12:39N 40°25' W 073°56'0 0.1
2017-May-19 09:37N 40°25' W 073°56'0 0.2
2017-May-19 09:24N 40°25' W 073°56'3 7.8
2017-May-19 08:59N 40°24' W 073°52'6 8.6
2017-May-19 08:20N 40°20' W 073°46'261 9.6
2017-May-18 05:09N 36°07' W 075°09'210.7
2017-May-18 05:00N 36°05' W 075°09'510.6
2017-May-18 04:30N 36°00' W 075°10'510.4
2017-May-18 04:01N 35°55' W 075°10'510.3
2017-May-18 03:30N 35°50' W 075°11'510.3
2017-May-18 03:00N 35°45' W 075°11'510.4
2017-May-18 02:30N 35°40' W 075°12'510.3
2017-May-18 02:00N 35°34' W 075°12'510.2
2017-May-18 01:31N 35°29' W 075°13'510.0
2017-May-18 01:00N 35°24' W 075°13'510.0
2017-May-18 00:30N 35°19' W 075°14'510.0
2017-May-18 00:00N 35°14' W 075°15'510.0
2017-May-17 23:30N 35°10' W 075°16'510.4
2017-May-17 23:00N 35°06' W 075°20'610.9
2017-May-17 22:30N 35°02' W 075°25'510.5
2017-May-17 22:00N 34°58' W 075°29'510.7
2017-May-17 21:30N 34°54' W 075°33'510.8
2017-May-17 21:00N 34°50' W 075°38'611.4
2017-May-17 20:30N 34°46' W 075°42'1411.4
2017-May-17 19:18N 34°36' W 075°55'311.4
2017-May-17 19:00N 34°34' W 075°58'1511.1
2017-May-17 17:42N 34°24' W 076°11'1110.9
2017-May-17 16:40N 34°17' W 076°21'1710.0
2017-May-17 14:58N 34°05' W 076°36'1110.5
2017-May-17 13:55N 33°57' W 076°45'510.4
2017-May-17 13:28N 33°54' W 076°49'510.5
2017-May-17 13:00N 33°51' W 076°53'1010.7
2017-May-17 12:06N 33°44' W 077°02'110.7
2017-May-17 12:00N 33°43' W 077°03'510.8
2017-May-17 11:30N 33°39' W 077°07'510.9
2017-May-17 11:01N 33°36' W 077°12'610.8
2017-May-17 10:29N 33°32' W 077°17'810.8
2017-May-17 09:46N 33°27' W 077°24'310.8
2017-May-17 09:30N 33°25' W 077°26'510.8
2017-May-17 09:00N 33°22' W 077°32'510.7
2017-May-17 08:30N 33°19' W 077°37'1010.9
2017-May-17 07:35N 33°16' W 077°48'1210.8
2017-May-17 06:28N 33°10' W 078°01'511.1
2017-May-17 06:00N 33°08' W 078°07'611.0
2017-May-17 05:25N 33°05' W 078°14'511.2
2017-May-17 04:58N 33°04' W 078°19'510.8
2017-May-17 04:30N 33°02' W 078°25'510.9
2017-May-17 04:00N 32°60' W 078°31'2610.9
2017-May-17 01:36N 32°49' W 078°60'110.7
2017-May-17 01:30N 32°49' W 079°01'510.7
2017-May-17 01:00N 32°47' W 079°07'510.5
2017-May-17 00:30N 32°44' W 079°12'510.2
2017-May-16 23:59N 32°43' W 079°18'510.3
2017-May-16 23:28N 32°43' W 079°25'710.2
2017-May-16 22:50N 32°42' W 079°32'510.4
2017-May-16 22:21N 32°42' W 079°38'910.4
2017-May-16 21:30N 32°43' W 079°49'52 1.7
2017-May-15 14:56N 31°52' W 079°58'1010.7
2017-May-15 13:58N 31°43' W 080°05'510.8
2017-May-15 13:27N 31°38' W 080°08'510.9
2017-May-15 13:00N 31°34' W 080°11'510.8
2017-May-15 12:30N 31°29' W 080°14'510.8
2017-May-15 12:01N 31°25' W 080°17'510.7
2017-May-15 11:30N 31°20' W 080°20'510.6
2017-May-15 11:00N 31°15' W 080°23'1310.4
2017-May-15 09:48N 31°04' W 080°30'410.3
2017-May-15 09:26N 31°01' W 080°32'410.3
2017-May-15 09:01N 30°57' W 080°34'  
Track history (hours):
 
Tides and Currents Weather Stations Pressure Air Temp Water Temp Dewpoint Dewpoint Depression Visibility Wind Speed Wind Dir Waves Ship Positions

Osg Courageous

Owner: OSG Ship Management, Inc, Tampa, FL. More information available from US FCC via Universal Licensing System and Coast Guard Vessel Documentation Center.

Last reported at 2017-May-22 23:25 UTC. Time now 2017-May-25 23:52 UTC.
Position N 38°59' W 074°20'.

Length 187 m; draft 7 m.

Type: Tanker. MMSI: 367481310.

Date/timePositionNaut miles runAvg speedWind from/ knotsBaromVisibWave heightAir tempDewpointWater temp
2017-May-22 23:25N 38°59' W 074°20'36 9.6
2017-May-22 19:41N 39°32' W 074°02'2 9.6
2017-May-22 19:30N 39°34' W 074°02'5 9.5
2017-May-22 19:00N 39°38' W 073°59'5 9.5
2017-May-22 18:30N 39°43' W 073°57'6 9.0
2017-May-22 17:52N 39°48' W 073°55'3 9.2
2017-May-22 17:30N 39°52' W 073°54'35 9.3
2017-May-22 13:46N 40°26' W 073°55'3 6.7
2017-May-22 13:22N 40°29' W 073°54'410.9
2017-May-22 13:00N 40°31' W 073°58'4 9.2
2017-May-22 12:30N 40°34' W 074°02'5 9.5
2017-May-22 12:00N 40°39' W 074°03'0 0.7
2017-May-22 11:30N 40°39' W 074°03'0 0.1
2017-May-22 11:00N 40°39' W 074°03'0 0.0
2017-May-22 10:30N 40°39' W 074°03'0 0.0
2017-May-22 10:00N 40°39' W 074°03'0 0.0
2017-May-22 09:30N 40°39' W 074°03'0 0.0
2017-May-22 09:00N 40°39' W 074°03'0 0.0
2017-May-22 08:30N 40°39' W 074°03'0 0.0
2017-May-22 08:00N 40°39' W 074°03'0 0.1
2017-May-22 07:30N 40°39' W 074°03'0 0.1
2017-May-22 07:00N 40°39' W 074°03'0 0.3
2017-May-22 06:30N 40°39' W 074°03'0 0.1
2017-May-22 06:00N 40°39' W 074°03'0 0.1
2017-May-22 05:30N 40°39' W 074°03'0 0.1
2017-May-22 05:00N 40°39' W 074°03'0 0.0
2017-May-22 04:30N 40°39' W 074°03'0 0.0
2017-May-22 04:00N 40°39' W 074°03'0 0.0
2017-May-22 03:30N 40°39' W 074°03'0 0.0
2017-May-22 03:00N 40°39' W 074°03'0 0.0
2017-May-22 02:30N 40°39' W 074°03'0 0.1
2017-May-22 02:00N 40°39' W 074°03'0 0.1
2017-May-22 01:30N 40°39' W 074°03'0 0.2
2017-May-22 01:00N 40°39' W 074°03'0 0.3
2017-May-22 00:30N 40°39' W 074°03'0 0.1
2017-May-22 00:00N 40°39' W 074°03'0 0.0
2017-May-21 23:28N 40°39' W 074°03'0 0.0
2017-May-21 22:58N 40°39' W 074°03'0 0.6
2017-May-21 22:30N 40°39' W 074°03'3 6.0
2017-May-21 22:00N 40°39' W 074°07'3 6.5
2017-May-21 21:30N 40°39' W 074°11'2 4.2
2017-May-21 21:00N 40°37' W 074°12'1 0.0
2017-May-19 21:38N 40°35' W 074°13'0 0.0
2017-May-19 21:29N 40°35' W 074°13'2 3.9
2017-May-19 21:00N 40°33' W 074°14'4 4.0
2017-May-19 19:59N 40°30' W 074°10'610.8
2017-May-19 19:28N 40°29' W 074°03'5 9.8
2017-May-19 19:00N 40°28' W 073°57'3 5.6
2017-May-19 18:29N 40°25' W 073°55'1 0.4
2017-May-19 17:09N 40°25' W 073°56'0 0.0
2017-May-19 16:54N 40°25' W 073°56'0 0.0
2017-May-19 15:12N 40°25' W 073°56'0 0.1
2017-May-19 14:42N 40°25' W 073°56'0 0.0
2017-May-19 14:00N 40°25' W 073°56'0 0.0
2017-May-19 13:27N 40°25' W 073°56'0 0.0
2017-May-19 12:39N 40°25' W 073°56'0 0.1
2017-May-19 09:37N 40°25' W 073°56'0 0.2
2017-May-19 09:24N 40°25' W 073°56'3 7.8
2017-May-19 08:59N 40°24' W 073°52'6 8.6
2017-May-19 08:20N 40°20' W 073°46'261 9.6
2017-May-18 05:09N 36°07' W 075°09'210.7
2017-May-18 05:00N 36°05' W 075°09'510.6
2017-May-18 04:30N 36°00' W 075°10'510.4
2017-May-18 04:01N 35°55' W 075°10'510.3
2017-May-18 03:30N 35°50' W 075°11'510.3
2017-May-18 03:00N 35°45' W 075°11'510.4
2017-May-18 02:30N 35°40' W 075°12'510.3
2017-May-18 02:00N 35°34' W 075°12'510.2
2017-May-18 01:31N 35°29' W 075°13'510.0
2017-May-18 01:00N 35°24' W 075°13'510.0
2017-May-18 00:30N 35°19' W 075°14'510.0
2017-May-18 00:00N 35°14' W 075°15'510.0
2017-May-17 23:30N 35°10' W 075°16'510.4
2017-May-17 23:00N 35°06' W 075°20'610.9
2017-May-17 22:30N 35°02' W 075°25'510.5
2017-May-17 22:00N 34°58' W 075°29'510.7
2017-May-17 21:30N 34°54' W 075°33'510.8
2017-May-17 21:00N 34°50' W 075°38'611.4
2017-May-17 20:30N 34°46' W 075°42'1411.4
2017-May-17 19:18N 34°36' W 075°55'311.4
2017-May-17 19:00N 34°34' W 075°58'1511.1
2017-May-17 17:42N 34°24' W 076°11'1110.9
2017-May-17 16:40N 34°17' W 076°21'1710.0
2017-May-17 14:58N 34°05' W 076°36'1110.5
2017-May-17 13:55N 33°57' W 076°45'510.4
2017-May-17 13:28N 33°54' W 076°49'510.5
2017-May-17 13:00N 33°51' W 076°53'1010.7
2017-May-17 12:06N 33°44' W 077°02'110.7
2017-May-17 12:00N 33°43' W 077°03'510.8
2017-May-17 11:30N 33°39' W 077°07'510.9
2017-May-17 11:01N 33°36' W 077°12'610.8
2017-May-17 10:29N 33°32' W 077°17'810.8
2017-May-17 09:46N 33°27' W 077°24'310.8
2017-May-17 09:30N 33°25' W 077°26'510.8
2017-May-17 09:00N 33°22' W 077°32'510.7
2017-May-17 08:30N 33°19' W 077°37'1010.9
2017-May-17 07:35N 33°16' W 077°48'1210.8
2017-May-17 06:28N 33°10' W 078°01'511.1
2017-May-17 06:00N 33°08' W 078°07'611.0
2017-May-17 05:25N 33°05' W 078°14'511.2
2017-May-17 04:58N 33°04' W 078°19'510.8
2017-May-17 04:30N 33°02' W 078°25'510.9
2017-May-17 04:00N 32°60' W 078°31'2610.9
2017-May-17 01:36N 32°49' W 078°60'110.7
2017-May-17 01:30N 32°49' W 079°01'510.7
2017-May-17 01:00N 32°47' W 079°07'510.5
2017-May-17 00:30N 32°44' W 079°12'510.2
2017-May-16 23:59N 32°43' W 079°18'510.3
2017-May-16 23:28N 32°43' W 079°25'710.2
2017-May-16 22:50N 32°42' W 079°32'510.4
2017-May-16 22:21N 32°42' W 079°38'910.4
2017-May-16 21:30N 32°43' W 079°49'52 1.7
2017-May-15 14:56N 31°52' W 079°58'1010.7
2017-May-15 13:58N 31°43' W 080°05'510.8
2017-May-15 13:27N 31°38' W 080°08'510.9
2017-May-15 13:00N 31°34' W 080°11'510.8
2017-May-15 12:30N 31°29' W 080°14'510.8
2017-May-15 12:01N 31°25' W 080°17'510.7
2017-May-15 11:30N 31°20' W 080°20'510.6
2017-May-15 11:00N 31°15' W 080°23'1310.4
2017-May-15 09:48N 31°04' W 080°30'410.3
2017-May-15 09:26N 31°01' W 080°32'410.3
2017-May-15 09:01N 30°57' W 080°34'  

Dump ship's entire track history